createdAt,value
2023-04-07T00:03:33.953Z,41.50
2023-04-07T00:08:36.745Z,40.10
2023-04-07T00:13:39.306Z,37.60
2023-04-07T00:18:47.078Z,35.00
2023-04-07T00:24:01.769Z,34.40
2023-04-07T00:29:06.607Z,31.60
2023-04-07T00:34:19.512Z,32.00
2023-04-07T00:39:22.135Z,28.10
2023-04-07T00:44:25.787Z,28.70
2023-04-07T00:49:32.083Z,32.00
2023-04-07T00:54:35.286Z,29.20
2023-04-07T00:59:38.984Z,27.60
2023-04-07T01:04:51.913Z,30.70
2023-04-07T01:10:05.740Z,25.30
2023-04-07T01:15:22.716Z,28.20
2023-04-07T01:20:33.068Z,27.80
2023-04-07T01:26:04.451Z,27.80
2023-04-07T01:31:10.800Z,29.40
2023-04-07T01:36:37.052Z,25.90
2023-04-07T01:41:43.256Z,27.90
2023-04-07T01:46:46.651Z,25.90
2023-04-07T01:51:53.027Z,30.50
2023-04-07T01:57:11.794Z,28.40
2023-04-07T02:02:43.103Z,28.70
2023-04-07T02:08:01.394Z,27.60
2023-04-07T02:13:10.650Z,28.10
2023-04-07T02:18:36.512Z,28.70
2023-04-07T02:23:49.968Z,27.40
2023-04-07T02:28:57.959Z,25.70
2023-04-07T02:34:00.751Z,30.10
2023-04-07T02:39:04.826Z,27.60
2023-04-07T02:44:10.149Z,24.90
2023-04-07T02:49:13.150Z,27.40
2023-04-07T02:54:15.839Z,28.30
2023-04-07T02:59:22.687Z,30.60
2023-04-07T03:04:33.547Z,28.40
2023-04-07T03:09:36.827Z,28.50
2023-04-07T03:14:39.457Z,34.10
2023-04-07T03:19:57.767Z,31.90
2023-04-07T03:25:01.140Z,30.10
2023-04-07T03:30:15.773Z,28.00
2023-04-07T03:35:22.232Z,28.10
2023-04-07T03:40:27.036Z,28.60
2023-04-07T03:45:34.095Z,32.20
2023-04-07T03:50:40.390Z,32.10
2023-04-07T03:55:48.731Z,33.80
2023-04-07T04:01:02.723Z,33.40
2023-04-07T04:06:07.526Z,33.00
2023-04-07T04:11:09.996Z,33.50
2023-04-07T04:16:54.374Z,32.50
2023-04-07T04:22:04.264Z,33.10
2023-04-07T04:27:12.022Z,32.70
2023-04-07T04:32:15.457Z,38.30
2023-04-07T04:37:18.951Z,32.50
2023-04-07T04:42:23.040Z,33.10
2023-04-07T04:47:26.478Z,34.60
2023-04-07T04:52:32.070Z,33.20
2023-04-07T04:57:38.459Z,33.60
2023-04-07T05:02:47.047Z,32.10
2023-04-07T05:07:51.101Z,32.10
2023-04-07T05:12:54.327Z,27.90
2023-04-07T05:18:02.939Z,28.40
2023-04-07T05:23:26.578Z,27.80
2023-04-07T05:28:37.555Z,27.90
2023-04-07T05:33:44.520Z,30.30
2023-04-07T05:38:48.449Z,33.70
2023-04-07T05:43:53.958Z,27.70
2023-04-07T05:49:18.791Z,25.80
2023-04-07T05:54:41.051Z,23.40
2023-04-07T05:59:50.730Z,18.30
2023-04-07T06:05:07.908Z,17.70
2023-04-07T06:10:12.496Z,16.40
2023-04-07T06:15:18.821Z,18.90
2023-04-07T06:20:28.910Z,19.00
2023-04-07T06:25:31.560Z,22.70
2023-04-07T06:30:42.002Z,19.40
2023-04-07T06:41:28.625Z,16.20
2023-04-07T06:46:31.735Z,14.90
2023-04-07T06:52:02.817Z,15.50
2023-04-07T06:57:44.263Z,14.80
2023-04-07T07:03:12.886Z,15.00
2023-04-07T07:08:32.937Z,15.30
2023-04-07T07:13:54.717Z,14.70
2023-04-07T07:19:14.141Z,17.00
2023-04-07T07:24:17.448Z,15.10
2023-04-07T07:30:09.754Z,14.90
2023-04-07T07:35:16.343Z,14.50
2023-04-07T07:40:40.986Z,12.10
2023-04-07T07:46:15.732Z,13.80
2023-04-07T07:51:55.455Z,13.70
2023-04-07T07:57:06.159Z,12.90
2023-04-07T08:02:12.912Z,13.30
2023-04-07T08:12:50.255Z,11.50
2023-04-07T08:17:54.713Z,14.10
2023-04-07T08:23:10.274Z,15.30
2023-04-07T08:28:13.927Z,16.70
2023-04-07T08:33:26.681Z,17.90
2023-04-07T08:38:29.159Z,15.40
2023-04-07T08:43:39.492Z,18.30
2023-04-07T08:48:53.017Z,15.80
2023-04-07T08:54:26.056Z,15.30
2023-04-07T08:59:29.925Z,18.20
2023-04-07T09:04:46.007Z,17.70
2023-04-07T09:11:06.884Z,18.10
2023-04-07T09:16:09.712Z,15.60
2023-04-07T09:21:16.772Z,17.90
2023-04-07T09:26:41.631Z,16.30
2023-04-07T09:31:50.565Z,15.30
2023-04-07T09:37:05.013Z,14.20
2023-04-07T09:42:11.687Z,15.10
2023-04-07T09:47:14.504Z,14.30
2023-04-07T09:53:19.779Z,14.70
2023-04-07T09:58:41.121Z,13.60
2023-04-07T10:03:48.375Z,17.60
2023-04-07T10:09:14.650Z,16.60
2023-04-07T10:14:19.552Z,16.30
2023-04-07T10:19:27.059Z,16.20
2023-04-07T10:24:59.023Z,14.90
2023-04-07T10:30:04.273Z,14.70
2023-04-07T10:35:24.025Z,16.00
2023-04-07T10:41:36.328Z,15.40
2023-04-07T10:47:31.725Z,15.50
2023-04-07T10:53:18.815Z,13.90
2023-04-07T10:58:29.074Z,14.20
2023-04-07T11:04:10.084Z,17.00
2023-04-07T11:09:45.694Z,15.20
2023-04-07T11:15:11.488Z,19.00
2023-04-07T11:20:57.277Z,16.50
2023-04-07T11:26:12.782Z,17.70
2023-04-07T11:31:31.789Z,16.20
2023-04-07T11:36:39.605Z,16.50
2023-04-07T11:41:50.606Z,18.10
2023-04-07T11:47:03.873Z,18.80
2023-04-07T11:52:12.952Z,17.10
2023-04-07T11:57:24.341Z,17.30
2023-04-07T12:02:34.182Z,17.30
2023-04-07T12:07:42.090Z,20.60
2023-04-07T12:12:46.351Z,18.80
2023-04-07T12:17:53.179Z,19.00
2023-04-07T12:22:56.048Z,21.20
2023-04-07T12:28:01.601Z,21.80
2023-04-07T12:33:04.111Z,22.50
2023-04-07T12:38:09.157Z,22.80
2023-04-07T12:43:11.644Z,20.50
2023-04-07T12:48:18.712Z,23.00
2023-04-07T12:53:27.562Z,20.20
2023-04-07T12:58:30.699Z,20.60
2023-04-07T13:03:35.878Z,23.70
2023-04-07T13:08:39.443Z,21.60
2023-04-07T13:13:42.278Z,22.40
2023-04-07T13:18:52.722Z,24.20
2023-04-07T13:24:00.471Z,21.70
2023-04-07T13:29:18.647Z,22.80
2023-04-07T13:34:48.336Z,27.30
2023-04-07T13:40:04.247Z,26.60
2023-04-07T13:45:23.453Z,25.30
2023-04-07T13:50:47.078Z,29.50
2023-04-07T13:55:57.379Z,24.20
2023-04-07T14:01:07.436Z,23.50
2023-04-07T14:06:11.209Z,24.80
2023-04-07T14:11:18.123Z,22.30
2023-04-07T14:21:31.495Z,29.30
2023-04-07T14:26:33.568Z,28.80
2023-04-07T14:31:36.121Z,28.80
2023-04-07T14:36:38.881Z,27.60
2023-04-07T14:41:41.521Z,24.00
2023-04-07T14:46:44.457Z,26.90
2023-04-07T14:51:51.435Z,25.70
2023-04-07T14:56:53.812Z,22.50
2023-04-07T15:01:56.168Z,22.90
2023-04-07T15:06:58.576Z,22.60
2023-04-07T15:12:02.643Z,23.30
2023-04-07T15:17:05.087Z,24.60
2023-04-07T15:22:07.869Z,24.90
2023-04-07T15:27:11.060Z,22.50
2023-04-07T15:32:13.852Z,23.70
2023-04-07T15:37:17.394Z,23.70
2023-04-07T15:42:19.929Z,29.10
2023-04-07T15:47:22.829Z,28.20
2023-04-07T15:52:25.849Z,26.40
2023-04-07T15:57:28.186Z,23.90
2023-04-07T16:02:30.870Z,25.20
2023-04-07T16:07:33.990Z,28.90
2023-04-07T16:12:45.806Z,33.10
2023-04-07T16:17:49.077Z,34.30
2023-04-07T16:22:52.416Z,30.70
2023-04-07T16:27:55.625Z,27.20
2023-04-07T16:33:01.834Z,25.00
2023-04-07T16:38:12.356Z,25.40
2023-04-07T16:43:18.168Z,28.50
2023-04-07T16:48:31.152Z,36.10
2023-04-07T16:53:34.244Z,33.40
2023-04-07T16:58:48.932Z,53.80
2023-04-07T17:03:58.570Z,30.50
2023-04-07T17:09:04.374Z,32.70
2023-04-07T17:14:06.874Z,37.30
2023-04-07T17:19:09.884Z,35.40
2023-04-07T17:24:15.387Z,34.70
2023-04-07T17:29:29.125Z,38.90
2023-04-07T17:34:33.605Z,34.50
2023-04-07T17:39:36.156Z,43.00
2023-04-07T17:44:38.760Z,45.30
2023-04-07T17:49:50.590Z,49.50
2023-04-07T17:55:03.488Z,44.20
2023-04-07T18:00:09.235Z,43.70
2023-04-07T18:05:21.043Z,39.90
2023-04-07T18:10:23.974Z,45.40
2023-04-07T18:15:26.939Z,37.60
2023-04-07T18:20:29.675Z,40.50
2023-04-07T18:25:32.007Z,54.60
2023-04-07T18:30:35.129Z,36.60
2023-04-07T18:35:38.039Z,38.60
2023-04-07T18:40:40.392Z,43.40
2023-04-07T18:45:47.059Z,42.20
2023-04-07T18:50:52.216Z,43.10
2023-04-07T18:55:55.899Z,44.40
2023-04-07T19:01:03.805Z,47.00
2023-04-07T19:06:06.652Z,46.10
2023-04-07T19:11:10.234Z,53.20
2023-04-07T19:16:13.645Z,56.80
2023-04-07T19:21:18.983Z,54.90
2023-04-07T19:26:22.890Z,55.10
2023-04-07T19:31:28.194Z,55.30
2023-04-07T19:36:31.331Z,53.10
2023-04-07T19:41:34.704Z,56.20
2023-04-07T19:46:37.815Z,50.10
2023-04-07T19:51:41.703Z,55.80
2023-04-07T19:56:52.775Z,56.90
2023-04-07T20:01:55.621Z,52.70
2023-04-07T20:06:58.060Z,56.00
2023-04-07T20:12:01.791Z,53.50
2023-04-07T20:17:04.888Z,49.20
2023-04-07T20:22:08.264Z,43.40
2023-04-07T20:27:11.107Z,42.50
2023-04-07T20:32:13.641Z,43.00
2023-04-07T20:37:16.657Z,44.10
2023-04-07T20:42:19.266Z,41.90
2023-04-07T20:47:25.126Z,42.20
2023-04-07T20:52:39.416Z,36.70
2023-04-07T20:57:43.639Z,37.80
2023-04-07T21:02:48.294Z,40.50
2023-04-07T21:07:51.933Z,37.60
2023-04-07T21:13:15.968Z,36.40
2023-04-07T21:18:19.396Z,32.90
2023-04-07T21:23:22.415Z,33.90
2023-04-07T21:28:24.944Z,36.60
2023-04-07T21:33:27.821Z,33.70
2023-04-07T21:38:31.181Z,36.50
2023-04-07T21:43:34.866Z,36.50
2023-04-07T21:48:49.379Z,41.70
2023-04-07T21:53:54.296Z,35.30
2023-04-07T21:58:57.222Z,30.40
2023-04-07T22:04:00.016Z,27.80
2023-04-07T22:09:03.600Z,27.70
2023-04-07T22:14:07.000Z,29.80
2023-04-07T22:19:10.213Z,24.40
2023-04-07T22:24:12.853Z,33.10
2023-04-07T22:29:18.658Z,32.60
2023-04-07T22:34:21.723Z,36.00
2023-04-07T22:39:24.885Z,38.10
2023-04-07T22:44:27.645Z,31.70
2023-04-07T22:49:31.345Z,27.30
2023-04-07T22:54:33.970Z,32.80
2023-04-07T22:59:36.760Z,34.90
2023-04-07T23:04:42.647Z,34.20
2023-04-07T23:09:47.229Z,40.20
2023-04-07T23:14:54.592Z,50.00
2023-04-07T23:19:58.100Z,42.50
2023-04-07T23:25:03.098Z,36.10
2023-04-07T23:30:06.431Z,43.30
2023-04-07T23:35:14.508Z,35.20
2023-04-07T23:40:21.628Z,31.50
2023-04-07T23:45:30.820Z,29.00
2023-04-07T23:50:48.800Z,32.00
2023-04-07T23:55:52.104Z,36.30
